sensor_id;sensor_type;location;lat;lon;timestamp;temperature;humidity
47618;DHT22;33336;36.728;-4.414;2024-01-30T00:01:53;17.80;99.90
47618;DHT22;33336;36.728;-4.414;2024-01-30T00:06:58;17.80;99.90
47618;DHT22;33336;36.728;-4.414;2024-01-30T00:12:03;17.70;99.90
47618;DHT22;33336;36.728;-4.414;2024-01-30T00:17:06;17.80;99.90
47618;DHT22;33336;36.728;-4.414;2024-01-30T00:22:09;17.80;99.90
47618;DHT22;33336;36.728;-4.414;2024-01-30T00:27:14;17.70;99.90
47618;DHT22;33336;36.728;-4.414;2024-01-30T00:32:17;17.80;99.90
47618;DHT22;33336;36.728;-4.414;2024-01-30T00:37:21;17.70;99.90
47618;DHT22;33336;36.728;-4.414;2024-01-30T00:42:28;17.90;99.90
47618;DHT22;33336;36.728;-4.414;2024-01-30T00:47:30;18.00;99.90
47618;DHT22;33336;36.728;-4.414;2024-01-30T00:52:34;17.90;99.90
47618;DHT22;33336;36.728;-4.414;2024-01-30T00:57:39;17.90;99.90
47618;DHT22;33336;36.728;-4.414;2024-01-30T01:02:42;18.10;99.90
47618;DHT22;33336;36.728;-4.414;2024-01-30T01:07:46;18.00;99.90
47618;DHT22;33336;36.728;-4.414;2024-01-30T01:12:51;18.00;99.90
47618;DHT22;33336;36.728;-4.414;2024-01-30T01:17:54;18.10;99.90
47618;DHT22;33336;36.728;-4.414;2024-01-30T01:22:56;18.10;99.90
47618;DHT22;33336;36.728;-4.414;2024-01-30T01:28:01;18.10;99.90
47618;DHT22;33336;36.728;-4.414;2024-01-30T01:33:05;18.10;99.90
47618;DHT22;33336;36.728;-4.414;2024-01-30T01:38:08;18.10;99.90
47618;DHT22;33336;36.728;-4.414;2024-01-30T01:43:13;18.10;99.90
47618;DHT22;33336;36.728;-4.414;2024-01-30T01:48:16;18.20;99.90
47618;DHT22;33336;36.728;-4.414;2024-01-30T01:53:19;18.00;99.90
47618;DHT22;33336;36.728;-4.414;2024-01-30T01:58:26;18.20;99.90
47618;DHT22;33336;36.728;-4.414;2024-01-30T02:03:31;18.10;99.90
47618;DHT22;33336;36.728;-4.414;2024-01-30T02:08:37;18.10;99.90
47618;DHT22;33336;36.728;-4.414;2024-01-30T02:13:43;17.90;99.90
47618;DHT22;33336;36.728;-4.414;2024-01-30T02:18:46;17.80;99.90
47618;DHT22;33336;36.728;-4.414;2024-01-30T02:23:51;17.90;99.90
47618;DHT22;33336;36.728;-4.414;2024-01-30T02:28:54;18.00;99.90
47618;DHT22;33336;36.728;-4.414;2024-01-30T02:33:57;17.80;99.90
47618;DHT22;33336;36.728;-4.414;2024-01-30T02:39:02;17.90;99.90
47618;DHT22;33336;36.728;-4.414;2024-01-30T02:44:05;17.70;99.90
47618;DHT22;33336;36.728;-4.414;2024-01-30T02:49:08;17.80;99.90
47618;DHT22;33336;36.728;-4.414;2024-01-30T02:54:13;18.00;99.90
47618;DHT22;33336;36.728;-4.414;2024-01-30T02:59:15;17.80;99.90
47618;DHT22;33336;36.728;-4.414;2024-01-30T03:04:19;17.80;99.90
47618;DHT22;33336;36.728;-4.414;2024-01-30T03:09:24;17.80;99.90
47618;DHT22;33336;36.728;-4.414;2024-01-30T03:14:28;17.80;99.90
47618;DHT22;33336;36.728;-4.414;2024-01-30T03:19:31;17.90;99.90
47618;DHT22;33336;36.728;-4.414;2024-01-30T03:24:36;17.90;99.90
47618;DHT22;33336;36.728;-4.414;2024-01-30T03:29:38;17.90;99.90
47618;DHT22;33336;36.728;-4.414;2024-01-30T03:34:42;17.80;99.90
47618;DHT22;33336;36.728;-4.414;2024-01-30T03:39:46;17.90;99.90
47618;DHT22;33336;36.728;-4.414;2024-01-30T03:44:50;17.80;99.90
47618;DHT22;33336;36.728;-4.414;2024-01-30T03:49:54;17.90;99.90
47618;DHT22;33336;36.728;-4.414;2024-01-30T03:54:59;17.80;99.90
47618;DHT22;33336;36.728;-4.414;2024-01-30T04:00:01;18.00;99.90
47618;DHT22;33336;36.728;-4.414;2024-01-30T04:05:07;18.00;99.90
47618;DHT22;33336;36.728;-4.414;2024-01-30T04:10:11;17.80;99.90
47618;DHT22;33336;36.728;-4.414;2024-01-30T04:15:14;17.70;99.90
47618;DHT22;33336;36.728;-4.414;2024-01-30T04:20:18;17.80;99.90
47618;DHT22;33336;36.728;-4.414;2024-01-30T04:25:23;17.70;99.90
47618;DHT22;33336;36.728;-4.414;2024-01-30T04:30:25;17.60;99.90
47618;DHT22;33336;36.728;-4.414;2024-01-30T04:35:28;17.70;99.90
47618;DHT22;33336;36.728;-4.414;2024-01-30T04:40:32;17.60;99.90
47618;DHT22;33336;36.728;-4.414;2024-01-30T04:45:35;17.70;99.90
47618;DHT22;33336;36.728;-4.414;2024-01-30T04:50:38;17.50;99.90
47618;DHT22;33336;36.728;-4.414;2024-01-30T04:55:43;17.50;99.90
47618;DHT22;33336;36.728;-4.414;2024-01-30T05:00:46;17.60;99.90
47618;DHT22;33336;36.728;-4.414;2024-01-30T05:05:53;17.60;99.90
47618;DHT22;33336;36.728;-4.414;2024-01-30T05:11:01;17.60;99.90
47618;DHT22;33336;36.728;-4.414;2024-01-30T05:16:06;17.50;99.90
47618;DHT22;33336;36.728;-4.414;2024-01-30T05:21:09;17.70;99.90
47618;DHT22;33336;36.728;-4.414;2024-01-30T05:26:15;17.50;99.90
47618;DHT22;33336;36.728;-4.414;2024-01-30T05:31:18;17.60;99.90
47618;DHT22;33336;36.728;-4.414;2024-01-30T05:36:21;17.60;99.90
47618;DHT22;33336;36.728;-4.414;2024-01-30T05:41:25;17.70;99.90
47618;DHT22;33336;36.728;-4.414;2024-01-30T05:46:28;17.50;99.90
47618;DHT22;33336;36.728;-4.414;2024-01-30T05:51:31;17.60;99.90
47618;DHT22;33336;36.728;-4.414;2024-01-30T05:56:36;17.70;99.90
47618;DHT22;33336;36.728;-4.414;2024-01-30T06:01:44;17.70;99.90
47618;DHT22;33336;36.728;-4.414;2024-01-30T06:06:47;17.50;99.90
47618;DHT22;33336;36.728;-4.414;2024-01-30T06:11:52;17.50;99.90
47618;DHT22;33336;36.728;-4.414;2024-01-30T06:16:55;17.50;99.90
47618;DHT22;33336;36.728;-4.414;2024-01-30T06:21:58;17.40;99.90
47618;DHT22;33336;36.728;-4.414;2024-01-30T06:27:03;17.50;99.90
47618;DHT22;33336;36.728;-4.414;2024-01-30T06:32:06;17.40;99.90
47618;DHT22;33336;36.728;-4.414;2024-01-30T06:37:09;17.40;99.90
47618;DHT22;33336;36.728;-4.414;2024-01-30T06:42:13;17.50;99.90
47618;DHT22;33336;36.728;-4.414;2024-01-30T06:47:16;17.40;99.90
47618;DHT22;33336;36.728;-4.414;2024-01-30T06:52:19;17.50;99.90
47618;DHT22;33336;36.728;-4.414;2024-01-30T06:57:24;17.60;99.90
47618;DHT22;33336;36.728;-4.414;2024-01-30T07:02:29;17.50;99.90
47618;DHT22;33336;36.728;-4.414;2024-01-30T07:07:32;17.60;99.90
47618;DHT22;33336;36.728;-4.414;2024-01-30T07:12:36;17.50;99.90
47618;DHT22;33336;36.728;-4.414;2024-01-30T07:17:40;17.40;99.90
47618;DHT22;33336;36.728;-4.414;2024-01-30T07:22:43;17.30;99.90
47618;DHT22;33336;36.728;-4.414;2024-01-30T07:27:48;17.30;99.90
47618;DHT22;33336;36.728;-4.414;2024-01-30T07:32:50;17.30;99.90
47618;DHT22;33336;36.728;-4.414;2024-01-30T07:37:54;17.30;99.90
47618;DHT22;33336;36.728;-4.414;2024-01-30T07:42:59;17.40;99.90
47618;DHT22;33336;36.728;-4.414;2024-01-30T07:48:03;17.40;99.90
47618;DHT22;33336;36.728;-4.414;2024-01-30T07:53:05;17.40;99.90
47618;DHT22;33336;36.728;-4.414;2024-01-30T07:58:10;17.50;99.90
47618;DHT22;33336;36.728;-4.414;2024-01-30T08:03:12;17.50;99.90
47618;DHT22;33336;36.728;-4.414;2024-01-30T08:08:18;17.50;99.90
47618;DHT22;33336;36.728;-4.414;2024-01-30T08:13:24;17.30;99.90
47618;DHT22;33336;36.728;-4.414;2024-01-30T08:18:27;17.50;99.90
47618;DHT22;33336;36.728;-4.414;2024-01-30T08:23:30;17.50;99.90
47618;DHT22;33336;36.728;-4.414;2024-01-30T08:28:35;17.30;99.90
47618;DHT22;33336;36.728;-4.414;2024-01-30T08:33:37;17.40;99.90
47618;DHT22;33336;36.728;-4.414;2024-01-30T08:38:40;17.40;99.90
47618;DHT22;33336;36.728;-4.414;2024-01-30T08:43:44;17.50;99.90
47618;DHT22;33336;36.728;-4.414;2024-01-30T08:48:48;17.60;99.90
47618;DHT22;33336;36.728;-4.414;2024-01-30T08:53:51;17.80;99.90
47618;DHT22;33336;36.728;-4.414;2024-01-30T08:58:57;17.60;99.90
47618;DHT22;33336;36.728;-4.414;2024-01-30T09:03:59;17.50;99.90
47618;DHT22;33336;36.728;-4.414;2024-01-30T09:09:03;17.80;99.90
47618;DHT22;33336;36.728;-4.414;2024-01-30T09:14:08;17.90;99.90
47618;DHT22;33336;36.728;-4.414;2024-01-30T09:19:12;17.80;99.90
47618;DHT22;33336;36.728;-4.414;2024-01-30T09:24:15;18.00;99.90
47618;DHT22;33336;36.728;-4.414;2024-01-30T09:29:20;18.00;99.90
47618;DHT22;33336;36.728;-4.414;2024-01-30T09:34:23;17.90;99.90
47618;DHT22;33336;36.728;-4.414;2024-01-30T09:39:26;18.00;99.90
47618;DHT22;33336;36.728;-4.414;2024-01-30T09:44:31;18.20;99.90
47618;DHT22;33336;36.728;-4.414;2024-01-30T09:49:35;18.10;99.90
47618;DHT22;33336;36.728;-4.414;2024-01-30T09:54:39;18.30;99.90
47618;DHT22;33336;36.728;-4.414;2024-01-30T09:59:45;18.20;99.90
47618;DHT22;33336;36.728;-4.414;2024-01-30T10:04:48;18.40;99.90
47618;DHT22;33336;36.728;-4.414;2024-01-30T10:09:53;18.60;99.90
47618;DHT22;33336;36.728;-4.414;2024-01-30T10:14:59;18.70;99.70
47618;DHT22;33336;36.728;-4.414;2024-01-30T10:20:04;18.80;99.20
47618;DHT22;33336;36.728;-4.414;2024-01-30T10:25:07;18.90;98.80
47618;DHT22;33336;36.728;-4.414;2024-01-30T10:30:14;18.90;98.80
47618;DHT22;33336;36.728;-4.414;2024-01-30T10:35:16;18.80;98.40
47618;DHT22;33336;36.728;-4.414;2024-01-30T10:40:21;18.90;98.00
47618;DHT22;33336;36.728;-4.414;2024-01-30T10:45:28;19.00;97.70
47618;DHT22;33336;36.728;-4.414;2024-01-30T10:50:35;19.00;97.00
47618;DHT22;33336;36.728;-4.414;2024-01-30T10:55:39;19.10;97.20
47618;DHT22;33336;36.728;-4.414;2024-01-30T11:00:44;19.30;97.00
47618;DHT22;33336;36.728;-4.414;2024-01-30T11:05:49;19.30;96.80
47618;DHT22;33336;36.728;-4.414;2024-01-30T11:10:56;19.50;96.40
47618;DHT22;33336;36.728;-4.414;2024-01-30T11:16:05;19.50;96.50
47618;DHT22;33336;36.728;-4.414;2024-01-30T11:21:08;19.60;96.20
47618;DHT22;33336;36.728;-4.414;2024-01-30T11:26:11;19.50;95.80
47618;DHT22;33336;36.728;-4.414;2024-01-30T11:31:19;19.70;96.70
47618;DHT22;33336;36.728;-4.414;2024-01-30T11:36:25;19.90;96.50
47618;DHT22;33336;36.728;-4.414;2024-01-30T11:41:30;19.80;95.70
47618;DHT22;33336;36.728;-4.414;2024-01-30T11:46:35;19.70;95.70
47618;DHT22;33336;36.728;-4.414;2024-01-30T11:51:38;19.80;95.60
47618;DHT22;33336;36.728;-4.414;2024-01-30T11:56:41;19.90;95.70
47618;DHT22;33336;36.728;-4.414;2024-01-30T12:01:47;19.80;94.60
47618;DHT22;33336;36.728;-4.414;2024-01-30T12:06:51;19.80;94.80
47618;DHT22;33336;36.728;-4.414;2024-01-30T12:11:54;19.90;95.10
47618;DHT22;33336;36.728;-4.414;2024-01-30T12:17:00;20.20;94.80
47618;DHT22;33336;36.728;-4.414;2024-01-30T12:22:04;20.20;94.60
47618;DHT22;33336;36.728;-4.414;2024-01-30T12:27:07;20.20;94.60
47618;DHT22;33336;36.728;-4.414;2024-01-30T12:32:16;20.30;94.80
47618;DHT22;33336;36.728;-4.414;2024-01-30T12:37:19;20.40;95.10
47618;DHT22;33336;36.728;-4.414;2024-01-30T12:42:24;20.50;95.00
47618;DHT22;33336;36.728;-4.414;2024-01-30T12:47:31;20.50;95.00
47618;DHT22;33336;36.728;-4.414;2024-01-30T12:52:35;20.80;94.10
47618;DHT22;33336;36.728;-4.414;2024-01-30T12:57:38;20.50;93.60
47618;DHT22;33336;36.728;-4.414;2024-01-30T13:02:43;21.00;94.20
47618;DHT22;33336;36.728;-4.414;2024-01-30T13:07:46;20.70;93.50
47618;DHT22;33336;36.728;-4.414;2024-01-30T13:12:49;20.60;92.90
47618;DHT22;33336;36.728;-4.414;2024-01-30T13:17:54;20.90;94.10
47618;DHT22;33336;36.728;-4.414;2024-01-30T13:22:58;20.90;94.50
47618;DHT22;33336;36.728;-4.414;2024-01-30T13:28:01;20.30;95.10
47618;DHT22;33336;36.728;-4.414;2024-01-30T13:33:06;21.00;95.10
47618;DHT22;33336;36.728;-4.414;2024-01-30T13:38:08;20.90;95.00
47618;DHT22;33336;36.728;-4.414;2024-01-30T13:43:11;21.20;95.20
47618;DHT22;33336;36.728;-4.414;2024-01-30T13:48:15;21.40;94.80
47618;DHT22;33336;36.728;-4.414;2024-01-30T13:53:19;21.00;94.90
47618;DHT22;33336;36.728;-4.414;2024-01-30T13:58:22;21.00;95.30
47618;DHT22;33336;36.728;-4.414;2024-01-30T14:03:26;21.00;95.10
47618;DHT22;33336;36.728;-4.414;2024-01-30T14:08:30;21.10;95.40
47618;DHT22;33336;36.728;-4.414;2024-01-30T14:13:33;21.20;94.90
47618;DHT22;33336;36.728;-4.414;2024-01-30T14:18:38;21.60;94.60
47618;DHT22;33336;36.728;-4.414;2024-01-30T14:23:43;21.30;94.30
47618;DHT22;33336;36.728;-4.414;2024-01-30T14:28:46;21.30;93.30
47618;DHT22;33336;36.728;-4.414;2024-01-30T14:33:50;21.60;94.00
47618;DHT22;33336;36.728;-4.414;2024-01-30T14:38:53;21.70;93.50
47618;DHT22;33336;36.728;-4.414;2024-01-30T14:43:57;21.70;93.30
47618;DHT22;33336;36.728;-4.414;2024-01-30T14:49:02;21.80;93.80
47618;DHT22;33336;36.728;-4.414;2024-01-30T14:54:07;21.50;94.10
47618;DHT22;33336;36.728;-4.414;2024-01-30T14:59:10;21.10;94.80
47618;DHT22;33336;36.728;-4.414;2024-01-30T15:04:14;21.30;95.00
47618;DHT22;33336;36.728;-4.414;2024-01-30T15:09:17;21.50;94.50
47618;DHT22;33336;36.728;-4.414;2024-01-30T15:14:24;21.10;94.30
47618;DHT22;33336;36.728;-4.414;2024-01-30T15:19:28;21.20;94.40
47618;DHT22;33336;36.728;-4.414;2024-01-30T15:24:33;21.40;94.70
47618;DHT22;33336;36.728;-4.414;2024-01-30T15:29:36;21.50;94.30
47618;DHT22;33336;36.728;-4.414;2024-01-30T15:34:40;21.50;94.10
47618;DHT22;33336;36.728;-4.414;2024-01-30T15:39:43;21.10;93.70
47618;DHT22;33336;36.728;-4.414;2024-01-30T15:44:47;20.80;94.50
47618;DHT22;33336;36.728;-4.414;2024-01-30T15:49:51;20.90;95.00
47618;DHT22;33336;36.728;-4.414;2024-01-30T15:54:55;21.00;95.30
47618;DHT22;33336;36.728;-4.414;2024-01-30T15:59:58;21.00;95.10
47618;DHT22;33336;36.728;-4.414;2024-01-30T16:05:03;21.30;95.70
47618;DHT22;33336;36.728;-4.414;2024-01-30T16:10:06;21.60;95.40
47618;DHT22;33336;36.728;-4.414;2024-01-30T16:15:10;22.60;94.80
47618;DHT22;33336;36.728;-4.414;2024-01-30T16:20:14;23.50;94.00
47618;DHT22;33336;36.728;-4.414;2024-01-30T16:25:18;24.60;93.00
47618;DHT22;33336;36.728;-4.414;2024-01-30T16:30:22;25.30;91.70
47618;DHT22;33336;36.728;-4.414;2024-01-30T16:35:26;25.70;91.50
47618;DHT22;33336;36.728;-4.414;2024-01-30T16:40:29;26.50;90.60
47618;DHT22;33336;36.728;-4.414;2024-01-30T16:45:32;26.00;91.10
47618;DHT22;33336;36.728;-4.414;2024-01-30T16:50:36;25.70;91.10
47618;DHT22;33336;36.728;-4.414;2024-01-30T16:55:40;26.00;91.30
47618;DHT22;33336;36.728;-4.414;2024-01-30T17:00:43;26.50;91.00
47618;DHT22;33336;36.728;-4.414;2024-01-30T17:05:47;26.00;91.10
47618;DHT22;33336;36.728;-4.414;2024-01-30T17:10:55;25.30;91.40
47618;DHT22;33336;36.728;-4.414;2024-01-30T17:16:00;25.00;92.00
47618;DHT22;33336;36.728;-4.414;2024-01-30T17:21:06;23.30;93.40
47618;DHT22;33336;36.728;-4.414;2024-01-30T17:26:11;22.50;94.50
47618;DHT22;33336;36.728;-4.414;2024-01-30T17:31:14;22.30;94.40
47618;DHT22;33336;36.728;-4.414;2024-01-30T17:36:18;22.30;94.10
47618;DHT22;33336;36.728;-4.414;2024-01-30T17:41:21;21.30;94.80
47618;DHT22;33336;36.728;-4.414;2024-01-30T17:46:25;20.90;95.60
47618;DHT22;33336;36.728;-4.414;2024-01-30T17:51:29;20.70;95.90
47618;DHT22;33336;36.728;-4.414;2024-01-30T17:56:33;20.30;95.90
47618;DHT22;33336;36.728;-4.414;2024-01-30T18:01:36;20.30;96.00
47618;DHT22;33336;36.728;-4.414;2024-01-30T18:06:48;20.10;96.30
47618;DHT22;33336;36.728;-4.414;2024-01-30T18:11:51;19.90;95.90
47618;DHT22;33336;36.728;-4.414;2024-01-30T18:16:55;20.00;95.50
47618;DHT22;33336;36.728;-4.414;2024-01-30T18:22:01;19.60;95.80
47618;DHT22;33336;36.728;-4.414;2024-01-30T18:27:06;19.40;96.20
47618;DHT22;33336;36.728;-4.414;2024-01-30T18:32:10;19.40;96.20
47618;DHT22;33336;36.728;-4.414;2024-01-30T18:37:14;19.20;96.60
47618;DHT22;33336;36.728;-4.414;2024-01-30T18:42:17;19.10;96.60
47618;DHT22;33336;36.728;-4.414;2024-01-30T18:47:21;19.10;96.70
47618;DHT22;33336;36.728;-4.414;2024-01-30T18:52:25;19.00;96.40
47618;DHT22;33336;36.728;-4.414;2024-01-30T18:57:31;18.80;96.70
47618;DHT22;33336;36.728;-4.414;2024-01-30T19:02:34;18.70;96.60
47618;DHT22;33336;36.728;-4.414;2024-01-30T19:07:38;18.70;96.10
47618;DHT22;33336;36.728;-4.414;2024-01-30T19:12:41;18.50;95.80
47618;DHT22;33336;36.728;-4.414;2024-01-30T19:17:47;18.30;95.60
47618;DHT22;33336;36.728;-4.414;2024-01-30T19:22:55;18.30;95.60
47618;DHT22;33336;36.728;-4.414;2024-01-30T19:27:59;18.30;95.60
47618;DHT22;33336;36.728;-4.414;2024-01-30T19:33:03;18.30;95.80
47618;DHT22;33336;36.728;-4.414;2024-01-30T19:38:08;18.20;96.00
47618;DHT22;33336;36.728;-4.414;2024-01-30T19:43:14;18.10;96.50
47618;DHT22;33336;36.728;-4.414;2024-01-30T19:48:18;18.20;96.90
47618;DHT22;33336;36.728;-4.414;2024-01-30T19:53:23;18.20;97.30
47618;DHT22;33336;36.728;-4.414;2024-01-30T19:58:28;17.90;98.30
47618;DHT22;33336;36.728;-4.414;2024-01-30T20:03:31;17.90;98.80
47618;DHT22;33336;36.728;-4.414;2024-01-30T20:08:36;18.00;99.00
47618;DHT22;33336;36.728;-4.414;2024-01-30T20:13:39;17.90;99.90
47618;DHT22;33336;36.728;-4.414;2024-01-30T20:18:43;18.00;99.90
47618;DHT22;33336;36.728;-4.414;2024-01-30T20:23:48;18.10;99.90
47618;DHT22;33336;36.728;-4.414;2024-01-30T20:28:52;18.20;99.90
47618;DHT22;33336;36.728;-4.414;2024-01-30T20:33:55;18.20;99.90
47618;DHT22;33336;36.728;-4.414;2024-01-30T20:39:00;18.10;99.90
47618;DHT22;33336;36.728;-4.414;2024-01-30T20:44:04;18.00;99.90
47618;DHT22;33336;36.728;-4.414;2024-01-30T20:49:09;18.30;99.90
47618;DHT22;33336;36.728;-4.414;2024-01-30T20:54:13;18.20;99.90
47618;DHT22;33336;36.728;-4.414;2024-01-30T20:59:17;18.30;99.90
47618;DHT22;33336;36.728;-4.414;2024-01-30T21:04:20;18.30;99.90
47618;DHT22;33336;36.728;-4.414;2024-01-30T21:09:24;18.10;99.90
47618;DHT22;33336;36.728;-4.414;2024-01-30T21:14:27;18.00;99.90
47618;DHT22;33336;36.728;-4.414;2024-01-30T21:19:31;17.80;99.90
47618;DHT22;33336;36.728;-4.414;2024-01-30T21:24:35;17.90;99.90
47618;DHT22;33336;36.728;-4.414;2024-01-30T21:29:39;18.20;99.90
47618;DHT22;33336;36.728;-4.414;2024-01-30T21:34:44;18.20;99.90
47618;DHT22;33336;36.728;-4.414;2024-01-30T21:39:50;18.20;99.90
47618;DHT22;33336;36.728;-4.414;2024-01-30T21:44:55;18.30;99.90
47618;DHT22;33336;36.728;-4.414;2024-01-30T21:49:59;18.40;99.90
47618;DHT22;33336;36.728;-4.414;2024-01-30T21:55:04;18.20;99.90
47618;DHT22;33336;36.728;-4.414;2024-01-30T22:00:08;18.10;99.90
47618;DHT22;33336;36.728;-4.414;2024-01-30T22:05:11;18.00;99.90
47618;DHT22;33336;36.728;-4.414;2024-01-30T22:10:15;18.10;99.90
47618;DHT22;33336;36.728;-4.414;2024-01-30T22:15:18;17.80;99.90
47618;DHT22;33336;36.728;-4.414;2024-01-30T22:20:22;18.00;99.90
47618;DHT22;33336;36.728;-4.414;2024-01-30T22:25:26;17.80;99.90
47618;DHT22;33336;36.728;-4.414;2024-01-30T22:30:30;18.00;99.90
47618;DHT22;33336;36.728;-4.414;2024-01-30T22:35:33;18.00;99.90
47618;DHT22;33336;36.728;-4.414;2024-01-30T22:40:37;18.00;99.90
47618;DHT22;33336;36.728;-4.414;2024-01-30T22:45:40;18.00;99.90
47618;DHT22;33336;36.728;-4.414;2024-01-30T22:50:43;18.00;99.90
47618;DHT22;33336;36.728;-4.414;2024-01-30T22:55:47;18.10;99.90
47618;DHT22;33336;36.728;-4.414;2024-01-30T23:00:51;18.10;99.90
47618;DHT22;33336;36.728;-4.414;2024-01-30T23:05:54;18.10;99.90
47618;DHT22;33336;36.728;-4.414;2024-01-30T23:10:58;18.00;99.90
47618;DHT22;33336;36.728;-4.414;2024-01-30T23:16:01;17.80;99.90
47618;DHT22;33336;36.728;-4.414;2024-01-30T23:21:05;18.00;99.90
47618;DHT22;33336;36.728;-4.414;2024-01-30T23:26:09;18.10;99.90
47618;DHT22;33336;36.728;-4.414;2024-01-30T23:31:13;18.00;99.90
47618;DHT22;33336;36.728;-4.414;2024-01-30T23:36:16;17.80;99.90
47618;DHT22;33336;36.728;-4.414;2024-01-30T23:41:21;17.80;99.90
47618;DHT22;33336;36.728;-4.414;2024-01-30T23:46:24;17.80;99.90
47618;DHT22;33336;36.728;-4.414;2024-01-30T23:51:28;17.70;99.90
47618;DHT22;33336;36.728;-4.414;2024-01-30T23:56:37;17.70;99.90
